Accueil
METAR-TAF:

METAR-TAF

Aéroports :

Grande Canarie, Espagne

Aéroport de Gran Canaria

latitude: 27-56N, longitude: 015-23W, altitude: 23 m

Observation

Le bulletin a été fait il y a 35 minutes, à 02:30 UTC
Vent 18 kt de nord
Température 23°C
Humidité 83%
Pression 1011 hPa
Visibilité 10 km ou plus
pas de nuages en-dessous de 1500 mètres et pas de cumulonimbus.

METAR: GCLP 240230Z 01018KT CAVOK 23/20 Q1011 NOSIG

Heure: 04:05 (03:05 UTC)

Prévision

Le bulletin a été fait il y a 1 heure et 5 minutes, à 02:00 UTC
Prévision valable du 24 à 03 UTC au 25 à 03 UTC
Vent 20 kt de nord/nord-est
Visibilité 10 km ou plus
pas de nuages en-dessous de 1500 mètres et pas de cumulonimbus.
Temporairement
du 24 à 03 UTC au 24 à 09 UTC
Vent 23 kt de nord/nord-est avec des rafales jusqu'à 33 kt

TAF: GCLP 240200Z 2403/2503 02020KT CAVOK TX30/2413Z TN26/2406Z TEMPO 2403/2409 02023G33KT

Observations et prévisions météorologiques de plus de 4000 aéroports (messages METAR et TAF).

Les stations disponibles sont représentées par des disques jaunes et rouges sur la carte.

Passer la souris dessus pour voir le nom de la station.

Cliquer dessus pour voir les observations et prévisions météorologiques.

Pour changer de carte: cliquez sur les boutons verts avec une croix noire pour zoomer, sur le bouton vert avec un tiret pour effectuer un zoom arrière, ou sur les flèches vertes pour les cartes adjacentes.


METAR-TAF: